createdAt,value
2022-09-28T00:01:07.632Z,97659.66
2022-09-28T00:03:35.747Z,97667.88
2022-09-28T00:06:05.391Z,97665.16
2022-09-28T00:08:33.418Z,97663.13
2022-09-28T00:11:02.040Z,97667.06
2022-09-28T00:13:33.281Z,97668.69
2022-09-28T00:16:03.399Z,97671.81
2022-09-28T00:18:32.219Z,97668.31
2022-09-28T00:21:05.830Z,97664.00
2022-09-28T00:23:34.462Z,97664.78
2022-09-28T00:26:05.853Z,97646.94
2022-09-28T00:28:35.286Z,97653.50
2022-09-28T00:31:03.323Z,97653.06
2022-09-28T00:33:31.453Z,97651.53
2022-09-28T00:36:00.211Z,97648.81
2022-09-28T00:38:29.493Z,97645.69
2022-09-28T00:40:57.587Z,97640.25
2022-09-28T00:43:26.458Z,97639.41
2022-09-28T00:46:00.357Z,97645.22
2022-09-28T00:48:32.283Z,97631.66
2022-09-28T00:51:01.915Z,97628.22
2022-09-28T00:53:32.823Z,97631.72
2022-09-28T00:56:04.901Z,97628.94
2022-09-28T00:58:36.273Z,97639.31
2022-09-28T01:01:06.263Z,97636.91
2022-09-28T01:03:35.296Z,97629.09
2022-09-28T01:06:06.203Z,97629.94
2022-09-28T01:08:35.479Z,97639.31
2022-09-28T01:11:03.786Z,97624.72
2022-09-28T01:13:32.985Z,97632.81
2022-09-28T01:16:10.161Z,97636.16
2022-09-28T01:18:47.716Z,97639.78
2022-09-28T01:21:20.136Z,97638.63
2022-09-28T01:24:09.754Z,97644.75
2022-09-28T01:27:04.131Z,97651.41
2022-09-28T01:29:48.614Z,97649.69
2022-09-28T01:32:24.992Z,97641.31
2022-09-28T01:34:58.796Z,97647.59
2022-09-28T01:37:33.230Z,97640.09
2022-09-28T01:40:04.356Z,97653.56
2022-09-28T01:42:38.429Z,97655.59
2022-09-28T01:45:13.258Z,97669.19
2022-09-28T01:47:42.072Z,97663.53
2022-09-28T01:50:14.096Z,97667.75
2022-09-28T01:52:48.339Z,97663.06
2022-09-28T01:55:25.137Z,97666.53
2022-09-28T01:57:58.409Z,97670.59
2022-09-28T02:00:27.787Z,97659.34
2022-09-28T02:03:01.753Z,97664.31
2022-09-28T02:05:33.537Z,97676.97
2022-09-28T02:08:07.898Z,97684.09
2022-09-28T02:10:42.581Z,97683.09
2022-09-28T02:13:16.445Z,97687.31
2022-09-28T02:15:51.857Z,97696.25
2022-09-28T02:18:20.086Z,97690.38
2022-09-28T02:20:53.910Z,97681.78
2022-09-28T02:23:24.593Z,97677.78
2022-09-28T02:25:57.126Z,97684.69
2022-09-28T02:28:26.407Z,97687.31
2022-09-28T02:30:54.494Z,97689.16
2022-09-28T02:33:27.040Z,97681.34
2022-09-28T02:35:55.409Z,97689.03
2022-09-28T02:38:23.374Z,97691.38
2022-09-28T02:41:02.736Z,97701.44
2022-09-28T02:43:40.728Z,97700.69
2022-09-28T02:46:19.055Z,97698.50
2022-09-28T02:49:17.332Z,97697.03
2022-09-28T02:52:01.941Z,97697.47
2022-09-28T02:54:42.447Z,97706.63
2022-09-28T02:57:29.514Z,97699.66
2022-09-28T03:00:08.228Z,97716.25
2022-09-28T03:02:43.330Z,97710.13
2022-09-28T03:05:19.453Z,97712.47
2022-09-28T03:07:55.683Z,97717.13
2022-09-28T03:10:29.539Z,97713.22
2022-09-28T03:12:59.081Z,97714.03
2022-09-28T03:15:30.694Z,97718.06
2022-09-28T03:17:59.373Z,97712.72
2022-09-28T03:20:28.174Z,97712.19
2022-09-28T03:23:20.110Z,97714.97
2022-09-28T03:25:44.453Z,97716.09
2022-09-28T03:28:12.463Z,97728.44
2022-09-28T03:30:43.060Z,97728.34
2022-09-28T03:33:11.008Z,97737.56
2022-09-28T03:35:38.920Z,97729.84
2022-09-28T03:38:06.874Z,97739.28
2022-09-28T03:40:34.938Z,97746.41
2022-09-28T03:43:02.972Z,97736.44
2022-09-28T03:45:30.931Z,97728.78
2022-09-28T03:48:00.430Z,97727.28
2022-09-28T03:50:28.762Z,97733.69
2022-09-28T03:52:56.703Z,97732.34
2022-09-28T03:55:24.648Z,97734.84
2022-09-28T03:57:56.135Z,97738.19
2022-09-28T04:00:24.331Z,97749.59
2022-09-28T04:02:52.247Z,97740.69
2022-09-28T04:05:21.500Z,97748.03
2022-09-28T04:07:49.557Z,97746.56
2022-09-28T04:10:17.667Z,97750.84
2022-09-28T04:12:45.994Z,97749.34
2022-09-28T04:15:14.083Z,97748.25
2022-09-28T04:17:42.033Z,97752.28
2022-09-28T04:20:10.607Z,97747.00
2022-09-28T04:22:39.887Z,97745.88
2022-09-28T04:25:08.330Z,97748.25
2022-09-28T04:27:53.597Z,97742.41
2022-09-28T04:43:59.628Z,97781.63
2022-09-28T04:46:27.659Z,97770.66
2022-09-28T04:48:55.609Z,97774.25
2022-09-28T04:51:23.687Z,97777.47
2022-09-28T04:53:51.763Z,97773.28
2022-09-28T04:56:20.728Z,97772.94
2022-09-28T04:58:52.576Z,97771.06
2022-09-28T05:01:24.340Z,97768.72
2022-09-28T05:03:52.521Z,97776.50
2022-09-28T05:06:21.063Z,97779.63
2022-09-28T05:08:48.985Z,97778.44
2022-09-28T05:11:17.508Z,97780.78
2022-09-28T05:13:46.678Z,97783.09
2022-09-28T05:16:16.898Z,97778.00
2022-09-28T05:18:46.331Z,97782.72
2022-09-28T05:21:15.730Z,97780.00
2022-09-28T05:23:47.976Z,97784.69
2022-09-28T05:26:16.128Z,97792.03
2022-09-28T05:28:44.719Z,97785.28
2022-09-28T05:31:12.699Z,97789.88
2022-09-28T05:33:40.740Z,97786.75
2022-09-28T05:36:11.912Z,97799.84
2022-09-28T05:38:39.951Z,97799.78
2022-09-28T05:41:07.982Z,97793.81
2022-09-28T05:43:36.364Z,97796.44
2022-09-28T05:46:04.666Z,97804.16
2022-09-28T05:48:32.752Z,97798.63
2022-09-28T05:51:00.702Z,97798.94
2022-09-28T05:53:30.000Z,97800.00
2022-09-28T05:55:59.575Z,97800.75
2022-09-28T05:58:28.524Z,97805.38
2022-09-28T06:00:57.118Z,97797.66
2022-09-28T06:03:25.904Z,97799.25
2022-09-28T06:05:53.949Z,97810.94
2022-09-28T06:08:22.240Z,97815.63
2022-09-28T06:10:51.572Z,97808.59
2022-09-28T06:13:20.088Z,97807.84
2022-09-28T06:15:48.118Z,97809.06
2022-09-28T06:18:16.117Z,97820.47
2022-09-28T06:20:44.468Z,97818.22
2022-09-28T06:23:14.044Z,97818.44
2022-09-28T06:25:42.101Z,97818.63
2022-09-28T06:28:13.397Z,97828.44
2022-09-28T06:30:42.530Z,97827.38
2022-09-28T06:33:12.875Z,97831.69
2022-09-28T06:35:40.927Z,97826.66
2022-09-28T06:38:09.178Z,97828.28
2022-09-28T06:40:37.593Z,97827.50
2022-09-28T06:43:10.264Z,97825.19
2022-09-28T06:45:40.130Z,97830.59
2022-09-28T06:48:09.127Z,97825.59
2022-09-28T06:50:38.813Z,97827.63
2022-09-28T06:53:09.471Z,97824.94
2022-09-28T06:55:40.748Z,97824.97
2022-09-28T06:58:11.895Z,97821.84
2022-09-28T07:00:42.515Z,97834.72
2022-09-28T07:03:13.611Z,97841.72
2022-09-28T07:05:45.347Z,97835.91
2022-09-28T07:08:13.895Z,97835.13
2022-09-28T07:10:44.025Z,97833.56
2022-09-28T07:13:32.912Z,97838.25
2022-09-28T07:16:03.235Z,97837.47
2022-09-28T07:18:31.133Z,97843.72
2022-09-28T07:20:59.712Z,97833.56
2022-09-28T07:23:29.643Z,97843.31
2022-09-28T07:25:58.329Z,97856.19
2022-09-28T07:28:26.279Z,97856.56
2022-09-28T07:30:54.214Z,97854.22
2022-09-28T07:33:25.304Z,97857.75
2022-09-28T07:35:53.660Z,97866.72
2022-09-28T07:38:21.627Z,97860.47
2022-09-28T07:41:07.252Z,97859.31
2022-09-28T07:43:35.378Z,97862.41
2022-09-28T07:46:03.336Z,97849.56
2022-09-28T07:48:36.728Z,97846.41
2022-09-28T07:51:05.438Z,97842.53
2022-09-28T07:53:33.717Z,97842.13
2022-09-28T07:56:08.699Z,97837.47
2022-09-28T07:58:38.179Z,97840.19
2022-09-28T08:01:08.002Z,97849.16
2022-09-28T08:03:38.309Z,97846.09
2022-09-28T08:06:09.913Z,97851.50
2022-09-28T08:08:38.067Z,97857.34
2022-09-28T08:11:10.270Z,97856.94
2022-09-28T08:13:38.870Z,97865.06
2022-09-28T08:16:08.496Z,97873.59
2022-09-28T08:18:37.829Z,97867.34
2022-09-28T08:21:25.416Z,97866.59
2022-09-28T08:23:54.029Z,97873.63
2022-09-28T08:26:21.963Z,97866.16
2022-09-28T08:28:50.185Z,97870.00
2022-09-28T08:31:18.323Z,97861.00
2022-09-28T08:33:47.781Z,97864.84
2022-09-28T08:36:15.690Z,97874.25
2022-09-28T08:38:43.710Z,97867.59
2022-09-28T08:41:18.697Z,97869.13
2022-09-28T08:44:04.998Z,97881.56
2022-09-28T08:46:37.091Z,97877.94
2022-09-28T08:49:30.939Z,97880.66
2022-09-28T08:52:02.372Z,97882.22
2022-09-28T08:54:40.398Z,97877.84
2022-09-28T08:57:13.726Z,97860.34
2022-09-28T08:59:51.303Z,97877.28
2022-09-28T09:02:25.560Z,97874.19
2022-09-28T09:04:55.652Z,97871.09
2022-09-28T09:07:48.200Z,97876.91
2022-09-28T09:10:39.865Z,97869.41
2022-09-28T09:13:19.979Z,97874.41
2022-09-28T09:15:57.601Z,97871.94
2022-09-28T09:18:38.919Z,97877.75
2022-09-28T09:21:15.521Z,97878.44
2022-09-28T09:23:53.075Z,97881.91
2022-09-28T09:26:25.979Z,97881.84
2022-09-28T09:29:23.096Z,97882.63
2022-09-28T09:32:06.456Z,97884.00
2022-09-28T09:34:44.444Z,97892.84
2022-09-28T09:37:34.464Z,97895.25
2022-09-28T09:40:24.968Z,97887.91
2022-09-28T09:43:06.197Z,97898.63
2022-09-28T09:45:58.676Z,97891.75
2022-09-28T09:48:35.612Z,97892.59
2022-09-28T09:51:11.953Z,97901.63
2022-09-28T09:53:48.431Z,97901.25
2022-09-28T09:56:23.069Z,97900.88
2022-09-28T09:58:56.133Z,97898.84
2022-09-28T10:01:36.241Z,97891.63
2022-09-28T10:04:07.521Z,97881.91
2022-09-28T10:06:38.825Z,97888.69
2022-09-28T10:09:14.796Z,97900.06
2022-09-28T10:11:47.697Z,97888.75
2022-09-28T10:14:19.353Z,97876.00
2022-09-28T10:16:48.720Z,97880.81
2022-09-28T10:19:19.441Z,97875.72
2022-09-28T10:21:50.298Z,97874.63
2022-09-28T10:24:28.721Z,97859.44
2022-09-28T10:27:00.290Z,97869.19
2022-09-28T10:29:40.085Z,97880.13
2022-09-28T10:32:19.783Z,97869.06
2022-09-28T10:34:50.834Z,97866.34
2022-09-28T10:37:19.709Z,97868.06
2022-09-28T10:39:53.299Z,97863.97
2022-09-28T10:42:24.807Z,97850.50
2022-09-28T10:44:56.646Z,97857.97
2022-09-28T10:47:26.870Z,97851.97
2022-09-28T10:49:56.997Z,97852.88
2022-09-28T10:52:33.933Z,97847.06
2022-09-28T10:55:04.556Z,97841.47
2022-09-28T10:57:36.720Z,97830.78
2022-09-28T11:00:07.016Z,97842.75
2022-09-28T11:02:37.584Z,97840.53
2022-09-28T11:05:08.168Z,97834.66
2022-09-28T11:07:47.479Z,97832.28
2022-09-28T11:10:24.501Z,97834.66
2022-09-28T11:12:54.075Z,97823.03
2022-09-28T11:15:25.810Z,97823.56
2022-09-28T11:17:54.069Z,97823.16
2022-09-28T11:20:33.028Z,97817.78
2022-09-28T11:23:14.856Z,97814.25
2022-09-28T11:25:45.251Z,97817.19
2022-09-28T11:28:23.911Z,97833.56
2022-09-28T11:30:54.177Z,97826.50
2022-09-28T11:33:29.368Z,97825.34
2022-09-28T11:36:10.412Z,97821.47
2022-09-28T11:38:42.066Z,97822.97
2022-09-28T11:41:34.289Z,97828.63
2022-09-28T11:44:18.664Z,97806.44
2022-09-28T11:46:58.315Z,97815.59
2022-09-28T11:49:33.694Z,97806.41
2022-09-28T11:52:11.892Z,97803.03
2022-09-28T11:54:46.045Z,97813.63
2022-09-28T11:57:19.595Z,97816.28
2022-09-28T11:59:57.588Z,97804.13
2022-09-28T12:02:30.998Z,97804.69
2022-09-28T12:05:15.951Z,97804.84
2022-09-28T12:07:52.238Z,97796.63
2022-09-28T12:10:28.096Z,97796.19
2022-09-28T12:13:03.395Z,97798.09
2022-09-28T12:16:07.425Z,97798.59
2022-09-28T12:18:34.246Z,97796.06
2022-09-28T12:21:19.509Z,97796.72
2022-09-28T12:23:49.900Z,97791.22
2022-09-28T12:26:29.587Z,97783.81
2022-09-28T12:29:03.021Z,97788.34
2022-09-28T12:31:36.148Z,97789.66
2022-09-28T12:34:04.199Z,97781.09
2022-09-28T12:36:47.546Z,97786.31
2022-09-28T12:39:53.484Z,97794.22
2022-09-28T12:42:35.130Z,97791.34
2022-09-28T12:45:19.978Z,97794.47
2022-09-28T12:48:07.825Z,97798.41
2022-09-28T12:50:49.944Z,97802.56
2022-09-28T12:53:53.048Z,97797.47
2022-09-28T12:56:29.677Z,97809.06
2022-09-28T12:59:12.709Z,97815.41
2022-09-28T13:02:15.553Z,97820.25
2022-09-28T13:04:58.936Z,97816.22
2022-09-28T13:07:35.382Z,97821.03
2022-09-28T13:10:16.780Z,97808.28
2022-09-28T13:12:57.518Z,97807.13
2022-09-28T13:15:39.320Z,97802.28
2022-09-28T13:18:20.399Z,97798.38
2022-09-28T13:21:08.261Z,97792.53
2022-09-28T13:23:40.526Z,97794.38
2022-09-28T13:26:25.425Z,97792.06
2022-09-28T13:28:55.759Z,97802.94
2022-09-28T13:31:33.187Z,97801.34
2022-09-28T13:34:07.324Z,97789.75
2022-09-28T13:36:40.482Z,97787.19
2022-09-28T13:39:48.799Z,97792.03
2022-09-28T13:42:42.855Z,97794.69
2022-09-28T13:45:46.790Z,97794.03
2022-09-28T13:48:17.478Z,97803.50
2022-09-28T13:51:31.957Z,97803.56
2022-09-28T13:54:13.331Z,97804.59
2022-09-28T13:56:50.972Z,97807.13
2022-09-28T13:59:24.352Z,97809.03
2022-09-28T14:01:57.518Z,97803.03
2022-09-28T14:04:47.122Z,97806.09
2022-09-28T14:07:22.997Z,97807.13
2022-09-28T14:10:17.600Z,97811.09
2022-09-28T14:12:47.975Z,97819.94
2022-09-28T14:15:45.137Z,97818.88
2022-09-28T14:18:23.480Z,97821.16
2022-09-28T14:21:21.772Z,97836.97
2022-09-28T14:24:27.986Z,97835.22
2022-09-28T14:27:14.635Z,97847.09
2022-09-28T14:29:42.758Z,97847.28
2022-09-28T14:32:26.664Z,97843.53
2022-09-28T14:34:59.485Z,97848.09
2022-09-28T14:37:49.053Z,97842.31
2022-09-28T14:40:45.859Z,97857.19
2022-09-28T14:43:27.856Z,97851.31
2022-09-28T14:46:31.610Z,97852.31
2022-09-28T14:49:01.738Z,97854.00
2022-09-28T14:52:02.652Z,97850.34
2022-09-28T14:54:40.288Z,97845.59
2022-09-28T14:57:18.590Z,97852.84
2022-09-28T14:59:47.929Z,97848.59
2022-09-28T15:02:26.298Z,97839.34
2022-09-28T15:05:00.055Z,97834.50
2022-09-28T15:07:32.915Z,97843.47
2022-09-28T15:10:02.150Z,97830.88
2022-09-28T15:12:32.622Z,97835.50
2022-09-28T15:15:02.819Z,97834.88
2022-09-28T15:17:39.195Z,97829.78
2022-09-28T15:20:22.685Z,97833.66
2022-09-28T15:22:52.706Z,97845.66
2022-09-28T15:25:24.543Z,97846.72
2022-09-28T15:27:56.963Z,97852.59
2022-09-28T15:30:28.488Z,97853.16
2022-09-28T15:33:18.081Z,97859.38
2022-09-28T15:35:49.972Z,97853.06
2022-09-28T15:38:18.499Z,97848.44
2022-09-28T15:40:47.794Z,97857.88
2022-09-28T15:43:27.073Z,97850.72
2022-09-28T15:46:02.716Z,97842.50
2022-09-28T15:48:34.153Z,97849.44
2022-09-28T15:51:11.145Z,97855.16
2022-09-28T15:53:46.820Z,97852.16
2022-09-28T15:56:19.037Z,97852.13
2022-09-28T15:59:12.051Z,97854.72
2022-09-28T16:01:41.151Z,97856.75
2022-09-28T16:04:40.542Z,97855.97
2022-09-28T16:07:25.480Z,97860.22
2022-09-28T16:10:30.897Z,97854.22
2022-09-28T16:13:09.720Z,97863.03
2022-09-28T16:15:40.450Z,97852.66
2022-09-28T16:18:20.090Z,97857.91
2022-09-28T16:20:50.980Z,97868.53
2022-09-28T16:23:26.045Z,97858.06
2022-09-28T16:25:58.737Z,97859.66
2022-09-28T16:28:51.755Z,97863.59
2022-09-28T16:31:28.532Z,97862.41
2022-09-28T16:33:59.032Z,97861.66
2022-09-28T16:36:29.856Z,97870.59
2022-09-28T16:38:57.747Z,97879.53
2022-09-28T16:41:28.997Z,97881.81
2022-09-28T16:44:01.038Z,97872.81
2022-09-28T16:46:34.269Z,97878.22
2022-09-28T16:49:03.175Z,97875.03
2022-09-28T16:51:31.109Z,97878.88
2022-09-28T16:54:19.485Z,97885.06
2022-09-28T16:56:47.537Z,97881.88
2022-09-28T16:59:15.518Z,97887.66
2022-09-28T17:01:45.039Z,97882.94
2022-09-28T17:04:13.111Z,97898.03
2022-09-28T17:06:41.159Z,97902.66
2022-09-28T17:09:13.140Z,97897.56
2022-09-28T17:11:41.060Z,97895.53
2022-09-28T17:14:09.468Z,97885.38
2022-09-28T17:19:32.082Z,97882.16
2022-09-28T17:22:00.024Z,97882.50
2022-09-28T17:24:28.130Z,97875.44
2022-09-28T17:26:56.944Z,97875.78
2022-09-28T17:29:24.930Z,97874.63
2022-09-28T17:31:53.032Z,97876.63
2022-09-28T17:34:21.277Z,97880.56
2022-09-28T17:36:50.825Z,97879.38
2022-09-28T17:39:20.030Z,97878.25
2022-09-28T17:41:48.068Z,97894.56
2022-09-28T17:44:16.368Z,97889.94
2022-09-28T17:46:49.173Z,97891.84
2022-09-28T17:49:17.705Z,97899.66
2022-09-28T17:51:45.764Z,97903.09
2022-09-28T17:54:16.946Z,97892.94
2022-09-28T17:56:45.507Z,97899.53
2022-09-28T17:59:15.508Z,97897.56
2022-09-28T18:01:43.653Z,97904.53
2022-09-28T18:04:27.905Z,97897.53
2022-09-28T18:07:01.571Z,97901.38
2022-09-28T18:09:31.155Z,97901.34
2022-09-28T18:12:01.764Z,97899.38
2022-09-28T18:14:30.146Z,97902.00
2022-09-28T18:16:58.064Z,97910.09
2022-09-28T18:19:31.181Z,97913.50
2022-09-28T18:22:01.511Z,97916.56
2022-09-28T18:24:32.562Z,97909.09
2022-09-28T18:27:00.593Z,97911.69
2022-09-28T18:29:32.920Z,97922.03
2022-09-28T18:32:01.577Z,97929.31
2022-09-28T18:34:29.561Z,97921.06
2022-09-28T18:36:59.562Z,97919.84
2022-09-28T18:39:27.730Z,97924.00
2022-09-28T18:41:57.292Z,97929.78
2022-09-28T18:44:25.250Z,97925.44
2022-09-28T18:46:53.171Z,97926.59
2022-09-28T18:49:21.421Z,97915.69
2022-09-28T18:51:49.345Z,97928.84
2022-09-28T18:54:17.537Z,97922.63
2022-09-28T18:56:47.222Z,97928.38
2022-09-28T18:59:16.756Z,97930.25
2022-09-28T19:01:44.718Z,97930.19
2022-09-28T19:04:13.571Z,97923.56
2022-09-28T19:06:44.589Z,97921.59
2022-09-28T19:09:13.191Z,97931.66
2022-09-28T19:11:41.312Z,97925.47
2022-09-28T19:14:11.127Z,97923.88
2022-09-28T19:16:40.444Z,97933.94
2022-09-28T19:19:09.737Z,97932.75
2022-09-28T19:21:37.710Z,97935.84
2022-09-28T19:24:06.041Z,97933.09
2022-09-28T19:26:34.730Z,97935.72
2022-09-28T19:29:03.065Z,97938.03
2022-09-28T19:31:32.707Z,97943.03
2022-09-28T19:34:02.241Z,97944.50
2022-09-28T19:36:30.801Z,97945.22
2022-09-28T19:39:02.207Z,97935.09
2022-09-28T19:41:51.328Z,97937.00
2022-09-28T19:44:24.953Z,97938.16
2022-09-28T19:46:54.607Z,97938.88
2022-09-28T19:49:25.457Z,97935.31
2022-09-28T19:52:13.908Z,97933.31
2022-09-28T19:54:44.615Z,97926.34
2022-09-28T19:57:14.564Z,97925.50
2022-09-28T19:59:42.786Z,97930.06
2022-09-28T20:02:13.436Z,97930.81
2022-09-28T20:04:42.856Z,97931.53
2022-09-28T20:07:12.096Z,97927.59
2022-09-28T20:09:40.004Z,97934.53
2022-09-28T20:12:07.908Z,97933.69
2022-09-28T20:14:39.508Z,97929.78
2022-09-28T20:17:08.763Z,97932.84
2022-09-28T20:19:36.751Z,97925.84
2022-09-28T20:22:06.343Z,97944.41
2022-09-28T20:24:34.364Z,97937.78
2022-09-28T20:27:02.909Z,97946.63
2022-09-28T20:29:33.451Z,97940.44
2022-09-28T20:32:02.114Z,97945.84
2022-09-28T20:34:30.042Z,97943.47
2022-09-28T20:36:57.951Z,97944.28
2022-09-28T20:39:27.443Z,97945.34
2022-09-28T20:41:55.612Z,97944.16
2022-09-28T20:44:23.657Z,97947.91
2022-09-28T20:46:52.121Z,97945.53
2022-09-28T20:49:20.185Z,97955.06
2022-09-28T20:51:48.123Z,97954.56
2022-09-28T20:54:16.125Z,97958.41
2022-09-28T20:56:48.098Z,97964.91
2022-09-28T20:59:16.446Z,97965.59
2022-09-28T21:01:44.679Z,97964.41
2022-09-28T21:04:13.055Z,97964.31
2022-09-28T21:06:42.815Z,97970.81
2022-09-28T21:09:12.228Z,97980.44
2022-09-28T21:11:40.369Z,97984.63
2022-09-28T21:14:10.822Z,97986.47
2022-09-28T21:16:39.135Z,97989.88
2022-09-28T21:19:07.138Z,97992.53
2022-09-28T21:21:37.634Z,97996.72
2022-09-28T21:24:05.852Z,98002.50
2022-09-28T21:26:35.074Z,97997.00
2022-09-28T21:29:04.651Z,97999.63
2022-09-28T21:31:39.392Z,98006.09
2022-09-28T21:34:08.216Z,98004.19
2022-09-28T21:36:36.319Z,97999.13
2022-09-28T21:39:09.560Z,97995.97
2022-09-28T21:41:38.414Z,98005.69
2022-09-28T21:44:06.795Z,98005.25
2022-09-28T21:46:36.504Z,98000.97
2022-09-28T21:49:07.502Z,97998.28
2022-09-28T21:51:36.374Z,97997.38
2022-09-28T21:54:04.468Z,97994.94
2022-09-28T21:56:32.415Z,98000.28
2022-09-28T21:59:01.316Z,98005.53
2022-09-28T22:01:29.482Z,98009.81
2022-09-28T22:03:59.248Z,98006.31
2022-09-28T22:06:29.068Z,97999.00
2022-09-28T22:08:57.794Z,97996.28
2022-09-28T22:11:27.643Z,97997.44
2022-09-28T22:13:57.284Z,97997.50
2022-09-28T22:16:27.382Z,97996.34
2022-09-28T22:18:55.844Z,98004.13
2022-09-28T22:21:26.614Z,97997.56
2022-09-28T22:23:55.090Z,97995.66
2022-09-28T22:26:24.796Z,97996.00
2022-09-28T22:28:54.666Z,97991.72
2022-09-28T22:31:25.408Z,97987.72
2022-09-28T22:33:53.357Z,97984.50
2022-09-28T22:36:21.602Z,97977.06
2022-09-28T22:38:51.016Z,97986.34
2022-09-28T22:41:21.215Z,97977.44
2022-09-28T22:43:49.902Z,97978.22
2022-09-28T22:46:19.365Z,97974.81
2022-09-28T22:48:48.317Z,97979.06
2022-09-28T22:51:16.897Z,97982.94
2022-09-28T22:53:45.361Z,97983.28
2022-09-28T22:56:18.825Z,97971.22
2022-09-28T22:58:47.695Z,97975.78
2022-09-28T23:01:17.367Z,97977.25
2022-09-28T23:03:45.850Z,97971.84
2022-09-28T23:06:16.662Z,97985.03
2022-09-28T23:08:45.632Z,97975.78
2022-09-28T23:11:15.517Z,97971.94
2022-09-28T23:13:43.438Z,97977.00
2022-09-28T23:16:14.824Z,97966.50
2022-09-28T23:18:43.802Z,97964.19
2022-09-28T23:21:13.137Z,97962.50
2022-09-28T23:23:41.040Z,97962.78
2022-09-28T23:26:15.469Z,97961.22
2022-09-28T23:28:43.560Z,97968.47
2022-09-28T23:31:13.721Z,97972.66
2022-09-28T23:33:41.811Z,97966.09
2022-09-28T23:36:10.330Z,97966.88
2022-09-28T23:38:38.992Z,97968.38
2022-09-28T23:41:06.916Z,97973.06
2022-09-28T23:43:36.280Z,97971.50
2022-09-28T23:46:05.253Z,97963.84
2022-09-28T23:48:33.272Z,97953.78
2022-09-28T23:51:01.371Z,97956.84
2022-09-28T23:53:29.331Z,97957.66
2022-09-28T23:55:57.256Z,97960.00
2022-09-28T23:58:25.867Z,97956.50
